Tuesday, March 3, 2015, 3:15 PM EST

KMDT, Harrisburg International Airport

Location: Middletown, PA, United States Lat: 40.2
Local Time: 3:15 PM EST (20:15 GMT) Lon: -76.767
Time Zone: US/Eastern Elev: 308 ft

Show me the last for .
Show Decoded

2015-03-03 14:56 METAR KMDT 031956Z 15011KT 6SM -FZRAPL OVC040 M02/M06 A3016 RMK AO2 SLP219 P0004
                 I1002 T10221061 =
2015-03-03 13:56 METAR KMDT 031856Z 17011KT 8SM -FZRAPL OVC045 M01/M08 A3021 =
2015-03-03 13:39 METAR KMDT 031839Z 16010KT 4SM -FZRAPL OVC045 M01/M08 A3023 RMK AO2
                 FZRAB37SNE37PLB37 P0001 I1000 T10111083 =
2015-03-03 12:56 METAR KMDT 031756Z 15010KT 9SM -SN BKN044 BKN070 M01/M10 A3026 =
2015-03-03 11:56 METAR KMDT 031656Z 12007KT 10SM BKN049 OVC060 M02/M09 A3032 =
2015-03-03 10:56 METAR KMDT 031556Z 13007KT 10SM OVC055 M02/M10 A3035 =
2015-03-03 09:56 METAR KMDT 031456Z 14006KT 10SM BKN100 OVC200 M03/M11 A3039 =
2015-03-03 08:56 METAR KMDT 031356Z 13004KT 10SM BKN100 OVC200 M04/M12 A3042 RMK AO2 SLP307
                 T10391117 =
2015-03-03 07:56 METAR KMDT 031256Z 13004KT 10SM OVC100 M04/M12 A3040 =
2015-03-03 06:56 METAR KMDT 031156Z 00000KT 10SM BKN120 M06/M11 A3042 RMK AO2 SLP305 T10561111
                 11044 21083 50009 =
2015-03-03 05:56 METAR KMDT 031056Z 00000KT 10SM BKN150 M05/M12 A3042 =
2015-03-03 04:56 METAR KMDT 030956Z 00000KT 10SM BKN150 OVC250 M05/M13 A3040 =
2015-03-03 03:56 METAR KMDT 030856Z 03004KT 10SM SCT150 BKN250 M05/M13 A3039 =
2015-03-03 02:56 METAR KMDT 030756Z 00000KT 10SM BKN250 M07/M11 A3040 =
2015-03-03 01:56 METAR KMDT 030656Z 35004KT 10SM SCT250 M07/M12 A3040 RMK AO2 SLP299 T10671117 =
2015-03-03 00:56 METAR KMDT 030556Z 32007KT 10SM FEW250 M04/M11 A3040 RMK AO2 SLP300 T10441111
                 11011 21056 53007 =
2015-03-02 23:56 METAR KMDT 030456Z 31009KT 10SM CLR M04/M11 A3039 =
2015-03-02 22:56 METAR KMDT 030356Z 30007KT 10SM CLR M03/M11 A3039 =
2015-03-02 21:56 METAR KMDT 030256Z 31007KT 10SM FEW250 M03/M10 A3038 =
2015-03-02 20:56 METAR KMDT 030156Z 30009KT 10SM FEW150 SCT250 M03/M10 A3037 =
2015-03-02 19:56 METAR KMDT 030056Z 30009KT 10SM FEW150 SCT250 M02/M10 A3037 RMK AO2 SLP288
                 T10221100 =
2015-03-02 18:56 METAR KMDT 022356Z 27006KT 10SM SCT250 M01/M11 A3035 RMK AO2 SLP282 T10111106
                 10022 21017 53021 =
2015-03-02 17:56 METAR KMDT 022256Z 30017G20KT 10SM SCT250 00/M10 A3033 =
2015-03-02 16:56 METAR KMDT 022156Z 32017G24KT 10SM FEW030 FEW250 01/M09 A3030 =
2015-03-02 15:56 METAR KMDT 022056Z 30017G27KT 10SM FEW030 02/M08 A3029 =

Support USWX by starting your Amazon purchase here.